Date,TemperatureHighF,TemperatureAvgF,TemperatureLowF,DewpointHighF,DewpointAvgF,DewpointLowF,HumidityHigh,HumidityAvg,HumidityLow,PressureMaxIn,PressureMinIn,WindSpeedMaxMPH,WindSpeedAvgMPH,GustSpeedMaxMPH,PrecipitationSumIn
2014-1-1,44,33,23,31,26,19,92,76,53,30.49,30.21,11,1,12,0.00
2014-1-2,36,32,27,33,30,26,96,93,85,30.20,29.66,12,1,13,0.00
2014-1-3,27,18,8,26,10,4,95,71,47,30.56,29.69,21,3,21,0.00
2014-1-4,33,18,4,19,11,2,92,76,52,30.60,30.33,14,1,14,0.04
2014-1-5,38,32,17,36,29,14,96,91,80,30.34,29.76,5,0,8,0.02
2014-1-6,45,34,9,43,25,-8,96,71,41,30.13,29.55,26,5,32,0.17
2014-1-7,16,9,3,1,-5,-11,74,52,40,30.51,30.12,27,4,29,0.00
2014-1-8,30,18,5,18,8,0,85,65,34,30.68,30.51,13,0,14,0.00
2014-1-9,36,29,24,24,20,18,82,70,52,30.72,30.56,6,1,13,0.00
2014-1-10,36,33,28,34,30,23,96,90,77,30.61,30.20,5,0,6,0.24
2014-1-11,57,46,35,56,44,34,96,94,78,30.20,29.45,18,2,23,0.61
2014-1-12,51,42,30,44,32,27,90,67,48,30.18,29.60,21,3,22,0.00
2014-1-13,58,41,26,40,33,25,95,75,44,30.19,29.93,14,2,16,0.00
2014-1-14,52,46,35,46,42,33,95,85,57,29.98,29.78,14,2,21,0.23
2014-1-15,43,39,34,41,36,29,96,89,67,30.05,29.94,14,2,17,0.01
2014-1-16,39,34,24,32,24,19,88,68,45,30.09,29.95,13,2,14,0.01
2014-1-17,45,34,24,32,28,21,94,79,54,30.04,29.87,10,1,10,0.00
2014-1-18,35,29,20,31,18,10,87,64,46,30.06,29.85,21,4,23,0.00
2014-1-19,47,33,19,27,20,12,82,60,43,30.04,29.80,19,2,19,0.00
2014-1-20,53,43,36,29,27,25,68,55,35,29.96,29.72,15,2,16,0.00
2014-1-21,37,26,14,28,22,8,94,84,68,29.96,29.82,23,5,26,0.00
2014-1-22,15,9,4,9,0,-4,80,66,50,30.17,29.95,15,5,24,0.00
2014-1-23,26,14,2,14,6,-2,88,68,55,30.49,30.15,17,3,21,0.00
2014-1-24,23,14,8,6,2,-2,67,56,41,30.62,30.16,15,3,16,0.00
2014-1-25,31,25,18,23,11,3,75,55,47,30.16,29.52,19,4,21,0.00
2014-1-26,30,25,14,22,14,5,86,63,47,30.06,29.70,18,2,24,0.00
2014-1-27,48,34,20,32,19,2,86,55,41,30.26,29.72,23,5,24,0.00
2014-1-28,20,15,11,7,0,-4,77,50,40,30.54,30.26,21,3,27,0.00
2014-1-29,22,15,10,9,4,-3,88,64,40,30.46,30.29,15,2,17,0.00
2014-1-30,29,16,3,12,7,-1,87,67,42,30.57,30.28,12,1,12,0.01
2014-1-31,44,30,17,24,19,12,83,63,37,30.32,30.21,8,0,8,0.00
2014-2-1,48,36,23,34,27,19,89,73,46,30.39,30.05,11,1,11,0.00
2014-2-2,59,43,28,39,33,27,94,71,43,30.15,30.00,13,1,13,0.00
2014-2-3,46,37,30,39,34,27,95,91,76,30.41,30.07,17,4,18,1.44
2014-2-4,36,30,25,28,24,21,91,76,59,30.54,30.21,8,1,8,0.01
2014-2-5,41,34,30,36,31,23,96,89,65,30.21,29.74,22,2,28,0.18
2014-2-6,34,30,26,24,19,-92,77,64,48,30.45,30.11,16,4,19,0.00
2014-2-7,42,30,21,25,22,18,93,72,46,30.41,30.32,12,1,14,0.00
2014-2-8,33,28,21,22,17,13,87,65,47,30.41,30.25,9,0,9,0.00
2014-2-9,33,27,18,28,22,16,94,80,58,30.26,30.04,10,0,11,0.00
2014-2-10,30,25,18,25,16,11,95,67,53,30.38,30.10,14,3,15,0.00
2014-2-11,30,22,13,13,10,8,84,63,41,30.53,30.37,13,2,13,0.00
2014-2-12,28,22,14,22,14,5,94,72,59,30.58,30.19,11,2,13,0.00
2014-2-13,36,32,23,34,30,22,96,95,91,30.19,29.27,19,5,25,0.50
2014-2-14,47,37,30,32,28,24,94,71,46,29.83,29.35,22,2,24,0.36
2014-2-15,36,34,27,32,28,16,91,79,59,30.04,29.69,20,5,22,0.06
2014-2-16,37,29,22,22,17,12,80,61,47,30.25,29.99,18,2,18,0.00
2014-2-17,34,27,21,22,15,10,83,62,38,30.50,30.25,7,1,11,0.00
2014-2-18,53,37,28,32,28,20,93,73,40,30.31,30.08,18,2,18,0.08
2014-2-19,57,41,27,47,34,26,94,77,42,30.21,29.76,22,2,22,0.17
2014-2-20,52,41,27,35,30,25,92,68,39,30.32,30.00,13,1,14,0.00
2014-2-21,63,44,33,57,39,31,94,83,66,30.01,29.71,22,1,24,0.04
2014-2-22,62,43,28,35,30,22,95,65,24,30.15,30.01,18,2,22,0.00
2014-2-23,59,50,42,36,31,28,76,49,34,30.08,29.94,14,2,15,0.00
2014-2-24,43,37,26,36,20,10,87,51,26,30.24,30.00,22,4,23,0.01
2014-2-25,36,29,22,29,22,16,88,75,57,30.19,30.04,8,1,10,0.03
2014-2-26,35,28,18,28,18,8,92,66,40,30.06,29.82,22,2,22,0.09
2014-2-27,38,26,13,21,12,1,89,58,30,30.19,29.73,28,4,28,0.00
2014-2-28,28,18,11,6,0,-7,67,45,28,30.49,30.19,18,3,18,0.00
2014-3-1,44,28,12,22,15,6,86,61,36,30.48,30.21,10,1,10,0.00
2014-3-2,45,37,32,36,29,22,95,74,52,30.22,30.02,10,1,11,0.27
2014-3-3,34,20,6,32,16,3,95,84,63,30.39,30.03,18,4,20,0.32
2014-3-4,31,18,4,17,10,2,91,72,45,30.47,30.29,11,1,12,0.15
2014-3-5,43,29,14,21,16,12,92,62,35,30.46,30.25,18,2,19,0.00
2014-3-6,33,28,22,23,17,13,77,63,53,30.63,30.42,12,4,16,0.00
2014-3-7,42,35,29,31,27,23,80,72,62,30.42,29.97,16,4,16,0.00
2014-3-8,62,45,26,37,31,23,90,61,35,30.00,29.92,18,1,18,0.00
2014-3-9,48,44,35,36,26,17,68,50,31,30.16,29.97,18,4,22,0.00
2014-3-10,60,46,34,33,28,21,62,51,32,30.07,29.69,16,2,16,0.00
2014-3-11,69,54,43,40,35,29,61,51,33,29.78,29.68,10,0,11,0.00
2014-3-12,67,51,33,55,40,21,84,67,44,29.71,29.09,29,4,39,0.26
2014-3-13,34,28,21,21,9,2,66,46,29,30.20,29.50,33,8,35,0.00
2014-3-14,53,37,21,30,20,8,69,50,25,30.28,29.94,18,3,19,0.00
2014-3-15,65,54,42,35,26,5,59,36,11,30.11,29.87,25,4,27,0.00
2014-3-16,46,39,31,28,24,-91,76,55,31,30.25,30.11,16,2,17,0.00
2014-3-18,37,36,36,30,29,28,76,75,70,30.28,30.27,5,0,6,0.05
2014-3-19,42,38,34,40,34,28,95,86,76,30.29,29.91,12,1,12,0.27
2014-3-20,58,47,40,42,33,19,95,63,24,30.08,29.87,22,3,24,0.00
2014-3-21,53,42,29,41,32,25,86,68,47,30.15,30.06,12,1,14,0.05
2014-3-22,69,51,35,38,33,27,93,58,21,30.08,29.86,15,2,16,0.00
2014-3-23,51,42,34,30,25,13,61,50,40,30.20,30.05,16,3,16,0.00
2014-3-24,41,31,23,16,11,6,67,45,25,30.37,30.19,18,4,18,0.00
2014-3-25,37,30,22,32,26,15,95,83,58,30.20,29.89,13,1,13,0.07
2014-3-26,37,31,26,30,17,7,95,60,32,30.37,29.91,17,5,30,0.01
2014-3-27,45,33,19,31,20,11,79,57,37,30.49,30.25,16,2,19,0.00
2014-3-28,66,54,37,51,43,30,85,68,53,30.25,30.04,23,5,27,0.04
2014-3-29,62,54,51,55,51,48,95,89,70,30.17,29.62,14,2,15,1.09
2014-3-30,55,43,34,53,41,32,95,94,90,29.85,29.54,21,5,23,1.51
2014-3-31,65,50,38,36,33,28,92,57,27,30.16,29.85,29,6,29,0.00
2014-4-1,62,49,36,41,35,29,79,60,42,30.23,30.05,11,1,13,0.00
2014-4-2,66,50,40,46,41,36,91,74,46,30.20,30.07,11,1,13,0.00
2014-4-3,64,55,48,49,42,35,93,66,37,30.19,30.02,13,1,14,0.06
2014-4-4,57,50,46,47,43,35,92,76,64,30.04,29.76,12,2,13,0.04
2014-4-5,56,50,44,46,36,27,95,63,38,30.20,29.77,14,4,23,0.00
2014-4-6,60,45,29,33,26,21,83,49,25,30.32,30.20,14,1,14,0.00
2014-4-7,54,45,37,52,41,30,95,87,66,30.25,29.68,17,1,19,0.52
2014-4-8,64,56,44,54,45,34,94,71,40,29.75,29.52,24,3,24,0.06
2014-4-9,66,52,35,38,33,25,93,55,22,30.11,29.74,19,2,22,0.00
2014-4-10,72,54,35,39,33,29,83,50,24,30.28,30.06,17,3,19,0.00
2014-4-11,82,67,53,52,41,34,74,41,19,30.13,29.96,17,3,18,0.00
2014-4-12,76,63,51,52,44,29,90,57,21,30.32,30.09,14,2,14,0.00
2014-4-13,83,65,50,55,52,47,92,65,32,30.22,30.03,19,3,19,0.00
2014-4-14,78,69,61,56,53,48,77,60,39,30.05,29.87,26,6,29,0.00
2014-4-15,67,57,35,64,53,30,95,87,74,30.10,29.55,19,4,22,2.02
2014-4-16,50,39,31,31,21,15,78,50,30,30.60,30.07,22,5,23,0.00
2014-4-17,55,42,29,38,32,26,92,69,47,30.72,30.59,16,2,16,0.00
2014-4-18,55,45,36,38,34,31,84,68,50,30.66,30.32,10,1,10,0.00
2014-4-19,70,54,38,41,37,31,90,58,28,30.37,30.21,14,1,14,0.00
2014-4-20,64,52,43,43,37,33,80,57,39,30.51,30.36,20,2,22,0.00
2014-4-21,72,52,33,43,36,29,89,59,28,30.36,29.95,9,1,10,0.00
2014-4-22,75,59,46,56,49,40,90,71,37,29.95,29.64,21,1,24,0.08
2014-4-23,60,53,46,52,36,32,89,54,42,30.05,29.70,25,6,28,0.00
2014-4-24,67,51,38,32,27,20,68,43,18,30.17,30.04,17,2,19,0.00
2014-4-25,67,52,38,49,38,29,92,63,30,30.10,29.79,18,2,21,0.58
2014-4-26,78,62,49,49,43,32,93,56,28,29.95,29.78,32,4,32,0.02
2014-4-27,68,56,44,40,35,30,68,46,28,30.16,29.93,16,2,16,0.00
2014-4-28,62,53,47,48,41,37,92,66,45,30.19,30.05,11,1,11,0.31
2014-4-29,50,48,47,47,46,43,95,91,81,30.28,30.13,17,2,17,0.54
2014-4-30,64,55,48,62,53,46,95,95,93,30.27,29.89,15,3,16,0.49
2014-5-1,78,67,59,62,56,43,94,73,46,29.91,29.74,15,2,16,0.02
2014-5-2,71,62,50,46,41,36,81,49,32,29.94,29.83,15,2,15,0.00
2014-5-3,72,61,51,50,46,41,83,59,37,29.95,29.79,15,1,16,0.00
2014-5-4,76,60,46,47,42,36,90,55,28,29.98,29.77,17,3,18,0.00
2014-5-5,69,57,44,45,36,32,76,48,30,30.10,29.93,17,2,18,0.01
2014-5-6,75,61,50,50,45,37,90,62,26,30.10,29.94,7,1,14,0.02
2014-5-7,63,56,46,54,47,37,86,75,44,30.33,30.10,9,1,10,0.14
2014-5-8,85,67,55,62,56,50,87,72,41,30.20,30.02,8,1,8,0.00
2014-5-9,73,64,58,61,57,54,91,81,65,30.17,29.98,8,1,9,0.00
2014-5-10,80,70,62,63,60,55,89,72,51,30.02,29.89,21,2,24,0.01
2014-5-11,84,68,57,59,52,43,93,62,25,30.18,29.97,8,1,12,0.01
2014-5-12,89,71,56,65,59,52,90,69,35,30.17,30.05,13,1,13,0.02
2014-5-13,88,74,60,66,62,54,91,69,42,30.24,30.08,12,2,14,0.00
2014-5-14,67,62,58,61,57,54,92,86,79,30.29,30.16,9,1,9,0.00
2014-5-15,80,71,62,68,63,60,92,78,56,30.20,29.97,20,3,22,0.01
2014-5-16,73,64,55,65,56,45,93,77,48,29.99,29.78,22,3,26,0.03
2014-5-17,69,59,46,46,43,36,88,59,32,30.20,29.98,12,1,12,0.00
2014-5-18,68,58,48,46,40,33,80,54,30,30.29,30.20,14,2,16,0.00
2014-5-19,75,59,41,43,39,34,89,54,24,30.34,30.20,12,1,13,0.00
2014-5-20,82,65,48,52,44,36,82,50,21,30.25,30.05,9,0,10,0.00
2014-5-21,76,66,60,60,56,52,87,72,52,30.07,29.93,9,1,9,0.00
2014-5-22,86,73,62,65,60,46,91,67,38,29.94,29.77,11,2,13,0.03
2014-5-23,77,67,55,50,47,42,76,49,34,30.06,29.92,16,3,18,0.00
2014-5-24,78,65,50,51,48,42,84,56,35,30.14,30.05,11,2,12,0.00
2014-5-25,85,69,52,53,48,39,88,53,22,30.20,30.10,12,1,13,0.00
2014-5-26,88,73,57,60,54,46,86,57,25,30.17,30.01,13,1,14,0.00
2014-5-27,92,75,63,64,61,58,89,66,33,30.01,29.86,16,1,23,0.07
2014-5-28,83,71,58,66,62,54,90,75,52,30.13,29.87,12,2,14,0.00
2014-5-29,58,56,54,55,53,52,93,91,88,30.24,30.13,8,0,9,0.00
2014-5-30,76,63,56,58,55,52,93,78,49,30.18,30.09,10,1,11,0.00
2014-5-31,80,68,54,56,49,40,89,56,27,30.31,30.12,15,2,18,0.00
2014-6-1,80,66,50,53,50,46,91,60,33,30.40,30.28,9,1,9,0.00
2014-6-2,84,68,52,59,52,48,88,62,36,30.33,30.09,15,2,15,0.00
2014-6-3,89,74,62,71,62,56,87,69,41,30.10,29.87,21,1,24,0.04
2014-6-4,88,76,66,65,60,48,90,63,28,29.90,29.74,11,1,11,0.02
2014-6-5,80,70,62,64,57,49,91,68,37,29.89,29.62,15,2,16,0.00
2014-6-6,81,68,55,55,51,48,83,57,33,30.02,29.86,9,2,12,0.00
2014-6-7,87,71,56,57,54,49,89,60,32,30.08,29.98,9,1,10,0.00
2014-6-8,84,72,58,62,58,54,88,64,41,30.01,29.87,13,2,14,0.00
2014-6-9,86,75,68,68,65,61,89,73,52,29.92,29.87,12,2,12,0.03
2014-6-10,88,77,72,72,68,65,87,78,51,29.97,29.88,8,1,8,0.01
2014-6-11,84,74,68,70,67,64,90,81,58,30.05,29.94,11,2,12,0.02
2014-6-12,77,71,68,70,67,64,90,88,78,30.04,29.87,11,1,12,0.00
2014-6-13,85,73,68,70,67,60,91,82,55,29.87,29.76,13,1,13,0.00
2014-6-14,76,70,64,62,53,48,84,59,39,30.14,29.86,16,3,18,0.00
2014-6-15,87,69,52,59,53,48,90,60,30,30.20,30.10,9,1,11,0.00
2014-6-16,91,76,59,67,61,55,90,64,36,30.16,30.07,8,1,10,0.00
2014-6-17,97,83,69,68,65,60,82,57,31,30.12,29.96,11,2,11,0.00
2014-6-18,96,85,75,70,66,61,74,55,35,30.02,29.93,21,2,21,0.00
2014-6-19,84,75,68,71,66,63,90,76,53,30.06,29.94,24,2,25,0.71
2014-6-20,85,73,62,64,54,41,90,58,23,30.08,29.94,11,2,11,0.01
2014-6-21,72,69,66,62,58,55,79,70,61,29.97,29.90,10,1,11,0.00
2014-6-22,84,73,66,63,60,58,84,67,42,30.04,29.91,8,1,8,0.00
2014-6-23,85,73,60,64,58,54,90,64,39,30.16,30.03,12,2,13,0.00
2014-6-24,87,75,64,67,62,57,82,65,46,30.17,30.01,13,2,13,0.00
2014-6-25,90,79,71,72,69,-71,88,73,53,30.03,29.82,16,2,16,1.07
2014-6-26,88,78,69,68,64,58,91,67,39,29.99,29.85,13,2,13,0.00
2014-6-27,84,75,66,67,64,58,86,69,52,30.21,29.98,13,2,14,0.00
2014-6-28,87,74,61,63,59,55,88,62,40,30.29,30.21,9,1,10,0.00
2014-6-29,87,75,61,61,58,53,87,59,37,30.26,30.12,11,1,11,0.00
2014-6-30,88,77,68,67,63,56,80,63,47,30.13,29.94,12,2,12,0.00
2014-7-1,92,80,70,71,67,63,86,67,49,29.98,29.83,13,2,14,0.00
2014-7-2,95,83,73,76,70,66,86,68,51,29.95,29.81,14,1,14,0.29
2014-7-3,90,78,72,73,70,67,90,79,54,29.98,29.88,13,1,18,0.22
2014-7-4,80,73,65,69,57,47,89,63,35,30.17,29.96,22,4,22,0.15
2014-7-5,86,71,56,55,49,42,80,51,25,30.27,30.17,12,1,13,0.00
2014-7-6,90,74,57,66,57,52,86,61,30,30.17,29.97,14,2,16,0.00
2014-7-7,94,81,71,64,61,58,70,52,33,29.97,29.81,17,2,19,0.00
2014-7-8,95,81,69,66,63,57,88,58,35,29.90,29.71,34,2,41,0.34
2014-7-9,88,76,70,72,68,64,90,78,47,29.98,29.83,11,1,11,0.01
2014-7-10,85,75,68,71,66,63,89,76,56,30.13,29.98,10,2,11,0.04
2014-7-11,90,77,66,67,63,59,87,66,38,30.21,30.12,10,2,10,0.00
2014-7-12,89,78,68,69,65,60,89,69,46,30.23,30.11,10,2,11,0.00
2014-7-13,93,81,71,70,67,62,87,67,44,30.12,29.90,20,2,23,0.35
2014-7-14,90,78,71,73,70,67,90,79,55,29.98,29.76,15,1,19,0.12
2014-7-15,88,76,71,73,69,66,91,83,52,29.85,29.70,14,1,19,0.92
2014-7-16,82,73,64,68,60,52,91,69,38,29.92,29.77,11,1,11,0.02
2014-7-17,84,71,59,58,55,49,86,61,33,30.13,29.92,12,2,12,0.00
2014-7-18,86,71,57,60,55,50,90,61,33,30.23,30.13,8,1,9,0.00
2014-7-19,82,74,66,64,59,52,84,63,38,30.21,30.13,14,1,15,0.00
2014-7-20,82,74,69,66,63,58,84,70,46,30.14,30.07,10,2,10,0.00
2014-7-21,87,76,68,66,64,60,87,69,45,30.18,30.12,10,1,10,0.00
2014-7-22,88,77,68,69,65,61,89,70,46,30.19,30.05,9,1,9,0.00
2014-7-23,94,80,70,72,68,63,88,68,42,30.08,29.78,11,1,12,0.07
2014-7-24,80,74,65,70,62,54,88,70,46,29.95,29.85,10,2,11,0.03
2014-7-25,87,71,56,58,53,48,88,59,28,30.07,29.94,12,2,13,0.00
2014-7-26,90,75,64,69,63,56,83,68,35,30.02,29.89,10,1,12,0.00
2014-7-27,88,78,71,70,68,65,88,73,53,29.90,29.64,13,2,14,0.01
2014-7-28,84,76,69,70,61,54,89,64,37,29.82,29.58,13,3,26,0.06
2014-7-29,78,68,59,59,54,50,88,62,41,30.02,29.82,11,2,12,0.00
2014-7-30,84,68,53,56,52,47,87,61,31,30.08,30.01,8,1,10,0.00
2014-7-31,89,73,59,65,59,54,89,64,33,30.13,30.06,13,1,13,0.00
2014-8-1,82,74,69,68,64,60,85,72,50,30.20,30.13,9,1,9,0.04
2014-8-2,82,72,65,66,64,61,91,77,54,30.19,30.06,11,1,11,0.28
2014-8-3,83,73,67,68,66,62,90,79,60,30.10,30.02,9,1,10,0.73
2014-8-4,86,73,63,65,62,59,92,73,43,30.11,30.05,10,1,11,0.01
2014-8-5,89,76,63,68,62,59,91,67,37,30.08,29.93,12,1,12,0.00
2014-8-6,82,73,65,67,62,59,89,71,49,29.98,29.87,9,1,18,0.01
2014-8-7,82,72,63,68,58,47,90,65,31,30.05,29.93,15,2,15,0.00
2014-8-8,84,71,59,60,57,52,89,65,38,30.13,30.05,7,1,8,0.00
2014-8-9,86,74,62,65,61,57,89,67,42,30.13,30.07,9,1,11,0.00
2014-8-10,89,75,63,68,61,55,91,66,34,30.14,30.08,9,1,9,0.00
2014-8-11,84,72,60,65,61,56,90,70,46,30.13,30.03,12,1,12,0.02
2014-8-12,74,72,68,71,68,63,92,89,80,30.04,29.76,15,1,18,6.20
2014-8-13,83,74,66,70,62,54,92,69,44,29.90,29.73,15,2,15,0.00
2014-8-14,84,70,57,58,54,49,86,60,34,29.95,29.84,11,1,12,0.00
2014-8-15,81,67,53,57,50,46,88,59,31,30.02,29.93,10,1,12,0.00
2014-8-16,86,69,56,57,54,48,90,63,28,30.03,29.93,11,0,11,0.00
2014-8-17,87,75,62,65,60,56,84,63,40,29.94,29.85,14,2,16,0.00
2014-8-18,82,73,64,64,60,57,87,66,49,29.93,29.80,6,1,8,0.00
2014-8-19,86,75,68,68,64,61,87,71,48,29.92,29.81,9,1,10,0.00
2014-8-20,84,70,64,66,62,58,90,78,43,30.02,29.91,12,1,12,0.01
2014-8-21,88,74,64,71,66,60,91,77,50,30.05,29.96,8,0,10,0.00
2014-8-22,79,73,68,68,66,64,89,79,69,30.02,29.93,8,1,9,0.00
2014-8-23,72,69,66,67,64,62,92,85,78,30.10,29.98,10,1,10,0.21
2014-8-24,82,71,63,63,59,54,92,71,39,30.15,30.08,16,2,16,0.00
2014-8-25,84,70,58,61,58,53,92,69,42,30.19,30.13,15,1,15,0.00
2014-8-26,88,72,59,64,60,55,92,69,39,30.16,30.05,9,1,10,0.00
2014-8-27,91,75,60,67,62,57,92,68,37,30.09,29.89,8,1,8,0.00
2014-8-28,84,75,63,67,59,50,83,59,36,30.08,29.87,13,3,14,0.00
2014-8-29,80,68,55,58,53,49,85,62,37,30.22,30.07,11,1,12,0.00
2014-8-30,83,73,63,69,63,58,88,73,54,30.23,30.11,10,1,10,0.00
2014-8-31,93,79,72,71,68,64,90,73,41,30.13,29.97,17,2,17,0.72
2014-9-1,91,79,72,73,70,65,91,76,46,30.03,29.93,9,0,10,0.00
2014-9-2,92,80,71,72,68,65,91,71,43,29.98,29.84,12,1,15,1.16
2014-9-3,85,75,67,70,65,60,91,74,46,30.13,29.89,7,0,8,0.00
2014-9-4,87,75,64,70,65,60,91,74,47,30.17,30.07,8,1,10,0.00
2014-9-5,90,79,70,72,70,66,91,75,51,30.15,30.00,9,1,10,0.00
2014-9-6,92,80,71,72,69,65,90,72,44,30.01,29.84,12,1,16,0.59
2014-9-7,82,72,66,68,58,48,90,65,35,30.16,29.95,12,2,16,0.00
2014-9-8,75,69,64,63,59,56,82,71,58,30.23,30.15,10,2,13,0.00
2014-9-9,79,71,65,64,61,59,87,74,58,30.19,30.07,13,4,16,0.00
2014-9-10,82,72,67,63,61,59,82,70,51,30.12,29.99,7,1,9,0.00
2014-9-11,89,77,68,69,66,59,88,70,48,30.00,29.84,13,2,14,0.00
2014-9-12,78,69,63,60,55,50,77,62,43,30.14,29.97,15,3,17,0.00
2014-9-13,70,65,56,64,58,53,90,78,65,30.20,30.08,11,1,12,0.14
2014-9-14,72,59,48,54,49,46,94,73,44,30.32,30.20,10,1,15,0.01
2014-9-15,73,61,51,56,52,48,92,75,51,30.25,30.04,8,1,8,0.00
2014-9-16,76,66,56,59,54,50,92,70,41,30.04,29.95,10,2,13,0.00
2014-9-17,76,61,49,56,51,47,94,73,42,30.07,29.94,8,0,8,0.00
2014-9-18,75,63,52,61,56,49,91,80,60,30.10,29.95,8,0,9,0.00
2014-9-19,75,63,54,58,55,50,93,77,56,30.30,30.10,12,2,13,0.00
2014-9-20,81,68,60,63,58,52,92,73,42,30.29,30.05,8,1,10,0.00
2014-9-21,83,68,56,65,60,53,93,78,53,30.05,29.64,19,1,20,0.01
2014-9-22,74,65,56,54,47,43,71,53,39,30.21,29.73,18,3,23,0.00
2014-9-23,73,57,44,49,45,40,93,68,40,30.38,30.21,10,1,10,0.00
2014-9-24,71,61,48,58,53,45,93,78,61,30.46,30.37,18,3,18,0.02
2014-9-25,65,62,59,60,58,56,93,88,81,30.37,30.21,15,5,19,0.99
2014-9-26,77,64,53,56,54,50,94,74,43,30.25,30.17,12,1,15,0.00
2014-9-27,82,64,52,58,54,49,94,74,42,30.24,30.16,9,1,9,0.00
2014-9-28,81,65,52,61,56,50,94,76,44,30.20,30.04,6,0,7,0.01
2014-9-29,71,65,59,63,60,56,92,85,75,30.04,29.91,7,0,7,0.00
2014-9-30,79,68,62,63,60,55,92,78,47,29.96,29.83,6,0,8,0.05
2014-10-1,73,66,59,62,59,56,92,81,61,30.06,29.93,9,1,10,0.06
2014-10-2,74,63,54,60,56,51,94,81,56,30.13,30.02,8,1,11,0.01
2014-10-3,71,64,55,61,57,52,93,82,65,30.11,29.72,12,1,17,0.07
2014-10-4,70,62,45,65,50,32,92,67,38,29.83,29.59,14,3,19,0.20
2014-10-5,63,49,36,42,37,-82,94,70,40,29.99,29.83,13,1,17,0.00
2014-10-6,72,57,42,53,46,39,94,69,39,30.05,29.95,15,2,18,0.00
2014-10-7,70,63,58,60,54,47,91,74,57,30.06,29.88,12,2,13,0.21
2014-10-8,76,64,56,58,52,43,93,70,38,30.02,29.85,16,1,16,0.01
2014-10-9,72,59,46,50,45,41,91,64,34,30.14,30.01,11,1,11,0.00
2014-10-10,62,58,53,52,49,46,88,73,61,30.14,30.06,7,0,7,0.05
2014-10-11,56,54,52,53,51,49,95,92,88,30.18,30.00,10,2,12,0.54
2014-10-12,63,54,44,51,47,43,95,77,54,30.31,30.18,11,1,11,0.01
2014-10-13,65,61,57,62,57,50,93,87,76,30.30,30.20,6,0,6,0.06
2014-10-14,77,70,61,65,63,58,94,82,64,30.20,29.97,21,3,21,0.00
2014-10-15,76,70,64,68,65,62,93,87,77,29.97,29.74,17,2,19,0.66
2014-10-16,66,60,57,62,56,54,94,89,74,29.75,29.70,8,0,10,0.00
2014-10-17,72,61,50,55,52,48,95,76,45,29.81,29.68,16,1,16,0.00
2014-10-18,69,59,51,54,47,40,92,68,43,29.87,29.62,18,3,22,0.00
2014-10-19,58,51,40,42,37,31,83,60,36,30.13,29.85,19,3,22,0.00
2014-10-20,67,50,34,48,41,32,95,73,47,30.16,29.94,19,1,19,0.00